createdAt,value
2018-09-24T00:02:13.361Z,99.90
2018-09-24T00:04:41.521Z,99.90
2018-09-24T00:07:09.662Z,99.90
2018-09-24T00:09:37.769Z,99.90
2018-09-24T00:12:05.929Z,99.90
2018-09-24T00:14:34.096Z,99.90
2018-09-24T00:17:02.230Z,99.90
2018-09-24T00:19:30.373Z,99.90
2018-09-24T00:21:58.541Z,99.90
2018-09-24T00:24:26.702Z,99.90
2018-09-24T00:26:54.835Z,99.90
2018-09-24T00:29:22.973Z,99.90
2018-09-24T00:31:51.112Z,99.90
2018-09-24T00:34:19.247Z,99.90
2018-09-24T00:36:47.389Z,99.90
2018-09-24T00:39:15.525Z,99.90
2018-09-24T00:41:43.714Z,99.90
2018-09-24T00:44:11.874Z,99.90
2018-09-24T00:46:40.008Z,99.90
2018-09-24T00:49:08.162Z,99.90
2018-09-24T00:51:36.302Z,99.90
2018-09-24T00:54:04.426Z,99.70
2018-09-24T00:56:32.573Z,99.50
2018-09-24T00:59:00.774Z,99.50
2018-09-24T01:01:28.933Z,98.50
2018-09-24T01:03:57.092Z,98.90
2018-09-24T01:06:25.240Z,98.50
2018-09-24T01:08:53.373Z,98.40
2018-09-24T01:11:21.541Z,98.40
2018-09-24T01:13:49.677Z,98.80
2018-09-24T01:16:17.809Z,98.80
2018-09-24T01:18:45.933Z,98.70
2018-09-24T01:21:14.076Z,98.80
2018-09-24T01:23:42.245Z,98.90
2018-09-24T01:26:10.589Z,99.10
2018-09-24T01:28:38.850Z,99.40
2018-09-24T01:31:07.006Z,99.60
2018-09-24T01:33:35.154Z,99.80
2018-09-24T01:36:03.333Z,99.90
2018-09-24T01:38:31.481Z,99.90
2018-09-24T01:40:59.640Z,99.90
2018-09-24T01:43:27.772Z,99.90
2018-09-24T01:45:55.949Z,99.90
2018-09-24T01:48:24.068Z,99.90
2018-09-24T01:50:52.314Z,99.90
2018-09-24T01:53:20.441Z,99.90
2018-09-24T01:55:50.308Z,99.90
2018-09-24T01:58:18.476Z,99.90
2018-09-24T02:00:46.623Z,99.90
2018-09-24T02:03:14.820Z,99.90
2018-09-24T02:05:42.964Z,99.90
2018-09-24T02:08:11.109Z,99.90
2018-09-24T02:10:39.255Z,99.90
2018-09-24T02:13:07.425Z,99.90
2018-09-24T02:15:35.608Z,99.90
2018-09-24T02:18:03.767Z,99.90
2018-09-24T02:20:31.943Z,99.90
2018-09-24T02:23:00.073Z,99.90
2018-09-24T02:25:28.254Z,99.90
2018-09-24T02:27:56.438Z,99.90
2018-09-24T02:30:24.635Z,99.90
2018-09-24T02:32:52.787Z,99.90
2018-09-24T02:35:20.976Z,99.90
2018-09-24T02:37:49.130Z,99.90
2018-09-24T02:40:21.057Z,99.90
2018-09-24T02:42:49.598Z,99.90
2018-09-24T02:45:17.745Z,99.90
2018-09-24T02:47:45.862Z,99.90
2018-09-24T02:50:14.010Z,99.90
2018-09-24T02:52:48.712Z,99.90
2018-09-24T02:55:18.890Z,99.90
2018-09-24T02:57:47.035Z,99.90
2018-09-24T03:00:20.812Z,99.90
2018-09-24T03:02:49.038Z,99.90
2018-09-24T03:05:17.208Z,99.90
2018-09-24T03:07:45.357Z,99.90
2018-09-24T03:10:13.541Z,99.90
2018-09-24T03:12:46.400Z,99.90
2018-09-24T03:15:14.546Z,99.90
2018-09-24T03:17:42.673Z,99.90
2018-09-24T03:20:11.178Z,99.90
2018-09-24T03:22:39.344Z,99.90
2018-09-24T03:25:07.474Z,99.90
2018-09-24T03:27:35.642Z,99.90
2018-09-24T03:30:03.771Z,99.90
2018-09-24T03:32:31.904Z,99.90
2018-09-24T03:35:00.082Z,99.90
2018-09-24T03:37:28.359Z,99.90
2018-09-24T03:39:56.551Z,99.90
2018-09-24T03:42:24.712Z,99.90
2018-09-24T03:44:52.852Z,99.90
2018-09-24T03:47:20.986Z,99.90
2018-09-24T03:49:49.169Z,99.90
2018-09-24T03:52:17.385Z,99.80
2018-09-24T03:54:45.506Z,99.80
2018-09-24T03:57:13.657Z,99.90
2018-09-24T03:59:41.818Z,99.90
2018-09-24T04:02:10.005Z,99.90
2018-09-24T04:04:43.730Z,99.60
2018-09-24T04:07:17.228Z,99.60
2018-09-24T04:09:51.033Z,99.80
2018-09-24T04:12:24.537Z,99.50
2018-09-24T04:14:58.184Z,99.10
2018-09-24T04:17:31.961Z,99.10
2018-09-24T04:20:05.729Z,99.40
2018-09-24T04:22:39.422Z,99.30
2018-09-24T04:25:13.127Z,99.30
2018-09-24T04:27:46.755Z,99.10
2018-09-24T04:30:20.221Z,99.10
2018-09-24T04:32:53.957Z,98.70
2018-09-24T04:35:27.709Z,98.70
2018-09-24T04:38:01.374Z,99.10
2018-09-24T04:40:35.070Z,99.00
2018-09-24T04:43:08.745Z,98.90
2018-09-24T04:45:42.481Z,98.90
2018-09-24T04:48:16.060Z,98.40
2018-09-24T04:50:49.694Z,99.10
2018-09-24T04:53:23.357Z,99.10
2018-09-24T04:55:57.003Z,99.10
2018-09-24T04:58:30.790Z,99.30
2018-09-24T05:01:04.504Z,99.20
2018-09-24T05:03:38.009Z,99.30
2018-09-24T05:06:11.700Z,99.60
2018-09-24T05:08:45.290Z,99.50
2018-09-24T05:11:18.994Z,99.70
2018-09-24T05:13:52.708Z,99.80
2018-09-24T05:16:26.359Z,99.50
2018-09-24T05:19:00.037Z,99.40
2018-09-24T05:21:33.659Z,99.30
2018-09-24T05:24:07.297Z,99.90
2018-09-24T05:26:41.018Z,99.90
2018-09-24T05:29:14.817Z,99.90
2018-09-24T05:31:48.626Z,99.90
2018-09-24T05:34:22.206Z,99.90
2018-09-24T05:36:55.948Z,99.90
2018-09-24T05:39:29.620Z,99.90
2018-09-24T05:42:03.316Z,99.90
2018-09-24T05:44:36.921Z,99.90
2018-09-24T05:47:10.626Z,99.90
2018-09-24T05:49:44.326Z,99.90
2018-09-24T05:52:17.853Z,99.90
2018-09-24T05:54:51.359Z,99.90
2018-09-24T05:57:25.013Z,99.90
2018-09-24T05:59:58.547Z,99.90
2018-09-24T06:02:32.072Z,99.90
2018-09-24T06:05:05.911Z,99.90
2018-09-24T06:07:39.350Z,99.90
2018-09-24T06:10:13.090Z,99.90
2018-09-24T06:12:46.932Z,99.60
2018-09-24T06:15:20.551Z,99.90
2018-09-24T06:17:54.237Z,99.90
2018-09-24T06:20:27.873Z,99.90
2018-09-24T06:23:01.284Z,98.60
2018-09-24T06:25:34.880Z,99.30
2018-09-24T06:28:08.649Z,99.90
2018-09-24T06:30:42.322Z,99.90
2018-09-24T06:33:16.002Z,99.80
2018-09-24T06:35:49.817Z,99.90
2018-09-24T06:38:23.373Z,99.80
2018-09-24T06:40:57.191Z,99.90
2018-09-24T06:43:30.848Z,99.90
2018-09-24T06:46:04.551Z,99.80
2018-09-24T06:48:38.258Z,99.60
2018-09-24T06:51:12.009Z,99.10
2018-09-24T06:53:47.993Z,99.20
2018-09-24T06:56:21.721Z,99.20
2018-09-24T06:58:55.320Z,98.60
2018-09-24T07:01:29.074Z,99.40
2018-09-24T07:04:02.737Z,99.20
2018-09-24T07:06:36.383Z,99.10
2018-09-24T07:09:12.506Z,99.90
2018-09-24T07:11:46.176Z,98.80
2018-09-24T07:14:19.932Z,98.30
2018-09-24T07:16:53.666Z,98.00
2018-09-24T07:19:27.511Z,99.30
2018-09-24T07:22:01.167Z,99.70
2018-09-24T07:24:34.866Z,98.20
2018-09-24T07:27:08.494Z,99.00
2018-09-24T07:29:42.056Z,99.90
2018-09-24T07:32:15.957Z,98.40
2018-09-24T07:34:49.631Z,98.40
2018-09-24T07:37:23.114Z,99.10
2018-09-24T07:39:56.707Z,98.40
2018-09-24T07:42:30.410Z,98.90
2018-09-24T07:45:03.983Z,98.20
2018-09-24T07:47:37.505Z,99.00
2018-09-24T07:50:11.137Z,98.40
2018-09-24T07:52:44.743Z,98.90
2018-09-24T07:55:18.375Z,98.50
2018-09-24T07:57:52.106Z,98.60
2018-09-24T08:00:25.722Z,98.10
2018-09-24T08:02:59.458Z,98.00
2018-09-24T08:05:33.026Z,98.00
2018-09-24T08:08:06.710Z,97.70
2018-09-24T08:10:40.413Z,99.30
2018-09-24T08:13:13.878Z,97.90
2018-09-24T08:15:47.505Z,98.10
2018-09-24T08:18:21.193Z,97.50
2018-09-24T08:20:54.901Z,96.50
2018-09-24T08:23:30.781Z,96.70
2018-09-24T08:26:04.425Z,99.90
2018-09-24T08:28:39.124Z,96.60
2018-09-24T08:31:15.003Z,96.30
2018-09-24T08:33:48.678Z,95.10
2018-09-24T08:36:22.466Z,99.90
2018-09-24T08:38:56.217Z,96.20
2018-09-24T08:41:29.989Z,99.90
2018-09-24T08:44:03.751Z,99.90
2018-09-24T08:46:37.407Z,96.70
2018-09-24T08:49:11.116Z,99.90
2018-09-24T08:51:44.712Z,94.70
2018-09-24T08:54:18.337Z,99.90
2018-09-24T08:56:52.256Z,92.70
2018-09-24T08:59:25.673Z,99.70
2018-09-24T09:01:59.249Z,93.50
2018-09-24T09:04:32.957Z,99.90
2018-09-24T09:07:06.701Z,96.40
2018-09-24T09:09:40.423Z,97.90
2018-09-24T09:12:14.165Z,99.90
2018-09-24T09:14:47.861Z,92.20
2018-09-24T09:17:21.510Z,98.10
2018-09-24T09:19:55.170Z,99.90
2018-09-24T09:22:29.529Z,92.50
2018-09-24T09:25:04.013Z,93.40
2018-09-24T09:27:38.027Z,92.80
2018-09-24T09:30:12.134Z,99.90
2018-09-24T09:32:45.789Z,99.90
2018-09-24T09:35:19.361Z,94.30
2018-09-24T09:37:53.034Z,99.90
2018-09-24T09:40:26.611Z,94.60
2018-09-24T09:43:00.260Z,99.90
2018-09-24T09:45:33.922Z,91.10
2018-09-24T09:48:07.511Z,93.10
2018-09-24T09:50:40.972Z,98.70
2018-09-24T09:53:14.673Z,99.40
2018-09-24T09:55:48.330Z,93.40
2018-09-24T09:58:22.092Z,94.10
2018-09-24T10:00:55.727Z,95.40
2018-09-24T10:03:29.434Z,93.20
2018-09-24T10:06:02.976Z,93.30
2018-09-24T10:08:36.442Z,94.50
2018-09-24T10:11:10.144Z,94.60
2018-09-24T10:13:43.735Z,94.90
2018-09-24T10:16:17.382Z,96.10
2018-09-24T10:18:51.024Z,96.00
2018-09-24T10:21:24.418Z,96.20
2018-09-24T10:23:58.149Z,96.10
2018-09-24T10:26:31.802Z,95.80
2018-09-24T10:29:05.527Z,95.90
2018-09-24T10:31:39.263Z,96.40
2018-09-24T10:34:12.969Z,97.40
2018-09-24T10:36:46.805Z,98.10
2018-09-24T10:39:20.353Z,98.00
2018-09-24T10:41:53.951Z,97.20
2018-09-24T10:44:27.553Z,96.20
2018-09-24T10:47:01.281Z,96.10
2018-09-24T10:49:34.914Z,96.30
2018-09-24T10:52:08.786Z,95.80
2018-09-24T10:54:42.414Z,95.80
2018-09-24T10:57:15.865Z,95.80
2018-09-24T10:59:49.470Z,95.50
2018-09-24T11:02:23.087Z,95.10
2018-09-24T11:04:56.758Z,94.70
2018-09-24T11:07:30.461Z,95.20
2018-09-24T11:10:04.223Z,95.30
2018-09-24T11:12:37.854Z,95.20
2018-09-24T11:15:11.291Z,95.10
2018-09-24T11:17:45.395Z,94.90
2018-09-24T11:20:18.686Z,94.60
2018-09-24T11:22:52.405Z,95.10
2018-09-24T11:25:26.140Z,95.00
2018-09-24T11:27:59.921Z,95.00
2018-09-24T11:30:33.465Z,94.60
2018-09-24T11:33:07.121Z,94.60
2018-09-24T11:35:40.690Z,97.90
2018-09-24T11:38:14.292Z,99.90
2018-09-24T11:40:47.951Z,94.00
2018-09-24T11:43:21.664Z,93.80
2018-09-24T11:45:55.282Z,93.00
2018-09-24T11:48:28.961Z,94.00
2018-09-24T11:51:02.696Z,92.30
2018-09-24T11:53:36.462Z,92.00
2018-09-24T11:56:09.972Z,93.00
2018-09-24T11:58:43.766Z,96.10
2018-09-24T12:01:17.486Z,92.90
2018-09-24T12:03:51.158Z,93.10
2018-09-24T12:06:24.796Z,93.90
2018-09-24T12:08:58.439Z,93.10
2018-09-24T12:11:32.138Z,93.40
2018-09-24T12:14:06.678Z,93.10
2018-09-24T12:16:40.370Z,91.80
2018-09-24T12:19:14.001Z,91.70
2018-09-24T12:21:48.609Z,91.90
2018-09-24T12:24:22.779Z,93.60
2018-09-24T12:26:56.282Z,94.90
2018-09-24T12:29:29.908Z,93.00
2018-09-24T12:32:03.498Z,99.50
2018-09-24T12:34:37.025Z,90.00
2018-09-24T12:37:10.676Z,90.20
2018-09-24T12:39:44.323Z,95.10
2018-09-24T12:42:18.028Z,91.00
2018-09-24T12:44:51.599Z,90.50
2018-09-24T12:47:25.137Z,97.70
2018-09-24T12:49:58.672Z,99.90
2018-09-24T12:52:32.274Z,93.50
2018-09-24T12:55:06.042Z,95.80
2018-09-24T12:57:39.682Z,91.00
2018-09-24T13:00:13.327Z,89.90
2018-09-24T13:02:46.968Z,99.30
2018-09-24T13:05:20.821Z,96.50
2018-09-24T13:07:54.444Z,91.10
2018-09-24T13:10:28.107Z,90.60
2018-09-24T13:13:01.734Z,97.20
2018-09-24T13:15:35.497Z,92.50
2018-09-24T13:18:09.177Z,88.10
2018-09-24T13:20:42.772Z,94.20
2018-09-24T13:23:16.479Z,97.00
2018-09-24T13:25:50.873Z,97.70
2018-09-24T13:28:24.637Z,90.00
2018-09-24T13:30:58.292Z,89.20
2018-09-24T13:33:31.815Z,99.90
2018-09-24T13:36:05.393Z,96.20
2018-09-24T13:38:39.046Z,83.90
2018-09-24T13:41:12.580Z,86.10
2018-09-24T13:43:46.062Z,83.30
2018-09-24T13:46:19.639Z,86.00
2018-09-24T13:48:53.221Z,92.50
2018-09-24T13:51:26.731Z,87.40
2018-09-24T13:54:00.353Z,92.80
2018-09-24T13:56:34.053Z,84.90
2018-09-24T13:59:07.634Z,87.20
2018-09-24T14:01:41.294Z,94.30
2018-09-24T14:04:14.823Z,91.90
2018-09-24T14:06:48.448Z,99.50
2018-09-24T14:09:22.034Z,95.80
2018-09-24T14:11:55.732Z,93.20
2018-09-24T14:14:29.525Z,89.20
2018-09-24T14:17:03.329Z,98.90
2018-09-24T14:19:36.990Z,90.20
2018-09-24T14:22:10.582Z,82.00
2018-09-24T14:24:44.206Z,88.40
2018-09-24T14:27:17.864Z,95.90
2018-09-24T14:29:51.416Z,84.10
2018-09-24T14:32:25.187Z,87.70
2018-09-24T14:34:58.688Z,87.90
2018-09-24T14:37:32.161Z,99.90
2018-09-24T14:40:05.744Z,83.00
2018-09-24T14:42:39.318Z,91.10
2018-09-24T14:45:12.702Z,97.10
2018-09-24T14:47:46.171Z,91.60
2018-09-24T14:50:19.736Z,83.40
2018-09-24T14:52:53.442Z,93.50
2018-09-24T14:55:27.138Z,90.80
2018-09-24T14:58:00.857Z,98.50
2018-09-24T15:00:34.425Z,99.90
2018-09-24T15:03:08.194Z,91.00
2018-09-24T15:05:41.853Z,98.90
2018-09-24T15:08:15.368Z,99.80
2018-09-24T15:10:49.149Z,89.30
2018-09-24T15:13:22.838Z,98.80
2018-09-24T15:15:56.427Z,96.60
2018-09-24T15:18:29.899Z,98.70
2018-09-24T15:21:03.614Z,97.00
2018-09-24T15:23:37.363Z,93.80
2018-09-24T15:26:12.234Z,86.40
2018-09-24T15:28:45.774Z,89.70
2018-09-24T15:31:19.241Z,85.80
2018-09-24T15:33:52.741Z,92.70
2018-09-24T15:36:26.322Z,86.30
2018-09-24T15:38:59.842Z,87.00
2018-09-24T15:41:33.646Z,87.30
2018-09-24T15:44:07.132Z,87.90
2018-09-24T15:46:40.846Z,97.00
2018-09-24T15:49:14.497Z,89.50
2018-09-24T15:51:48.149Z,88.40
2018-09-24T15:54:21.838Z,91.60
2018-09-24T15:56:55.526Z,89.20
2018-09-24T15:59:29.017Z,89.50
2018-09-24T16:02:02.875Z,90.20
2018-09-24T16:04:36.462Z,91.30
2018-09-24T16:07:10.433Z,94.70
2018-09-24T16:09:44.147Z,94.30
2018-09-24T16:12:18.007Z,94.10
2018-09-24T16:14:51.637Z,99.90
2018-09-24T16:17:26.765Z,93.20
2018-09-24T16:20:01.414Z,92.60
2018-09-24T16:22:35.052Z,93.60
2018-09-24T16:25:08.592Z,93.30
2018-09-24T16:27:42.207Z,99.90
2018-09-24T16:30:15.908Z,92.60
2018-09-24T16:32:49.648Z,92.10
2018-09-24T16:35:23.244Z,92.90
2018-09-24T16:37:56.935Z,91.70
2018-09-24T16:40:30.576Z,95.00
2018-09-24T16:43:04.278Z,92.40
2018-09-24T16:45:37.986Z,93.30
2018-09-24T16:48:11.769Z,93.50
2018-09-24T16:50:45.303Z,93.50
2018-09-24T16:53:19.038Z,93.70
2018-09-24T16:55:52.667Z,94.00
2018-09-24T16:58:26.281Z,94.40
2018-09-24T17:00:59.977Z,94.10
2018-09-24T17:03:33.678Z,94.20
2018-09-24T17:06:07.420Z,93.90
2018-09-24T17:08:40.919Z,94.00
2018-09-24T17:11:14.607Z,94.00
2018-09-24T17:13:48.106Z,99.80
2018-09-24T17:16:21.761Z,93.70
2018-09-24T17:18:55.345Z,93.90
2018-09-24T17:21:28.921Z,93.50
2018-09-24T17:24:02.409Z,94.00
2018-09-24T17:26:36.192Z,93.70
2018-09-24T17:29:09.685Z,93.60
2018-09-24T17:31:43.214Z,93.70
2018-09-24T17:34:16.871Z,93.90
2018-09-24T17:36:50.425Z,94.00
2018-09-24T17:39:23.919Z,94.10
2018-09-24T17:41:57.584Z,93.90
2018-09-24T17:44:31.114Z,94.20
2018-09-24T17:47:04.687Z,94.40
2018-09-24T17:49:38.387Z,94.40
2018-09-24T17:52:12.152Z,94.60
2018-09-24T17:54:45.873Z,94.60
2018-09-24T17:57:19.496Z,94.40
2018-09-24T17:59:54.844Z,94.40
2018-09-24T18:02:28.524Z,94.40
2018-09-24T18:05:02.050Z,94.50
2018-09-24T18:07:35.751Z,94.80
2018-09-24T18:10:09.354Z,95.00
2018-09-24T18:12:43.046Z,94.90
2018-09-24T18:15:16.826Z,94.70
2018-09-24T18:17:50.431Z,94.60
2018-09-24T18:20:23.877Z,94.40
2018-09-24T18:22:57.440Z,94.30
2018-09-24T18:25:30.803Z,94.40
2018-09-24T18:28:04.454Z,94.40
2018-09-24T18:30:38.143Z,94.30
2018-09-24T18:33:11.826Z,94.40
2018-09-24T18:35:45.538Z,94.70
2018-09-24T18:38:19.268Z,94.50
2018-09-24T18:40:52.983Z,94.70
2018-09-24T18:43:26.570Z,94.40
2018-09-24T18:46:00.323Z,94.70
2018-09-24T18:48:34.773Z,94.60
2018-09-24T18:51:08.399Z,94.60
2018-09-24T18:53:41.977Z,94.40
2018-09-24T18:56:15.480Z,94.20
2018-09-24T18:58:49.200Z,94.20
2018-09-24T19:01:22.910Z,94.40
2018-09-24T19:03:56.426Z,93.90
2018-09-24T19:06:30.058Z,93.90
2018-09-24T19:09:03.791Z,94.10
2018-09-24T19:11:37.303Z,93.70
2018-09-24T19:14:11.010Z,93.70
2018-09-24T19:16:44.644Z,93.90
2018-09-24T19:19:18.330Z,93.80
2018-09-24T19:21:51.830Z,93.60
2018-09-24T19:24:25.579Z,93.50
2018-09-24T19:26:59.526Z,93.80
2018-09-24T19:29:33.188Z,93.90
2018-09-24T19:32:06.531Z,93.80
2018-09-24T19:34:40.073Z,93.90
2018-09-24T19:37:20.747Z,93.70
2018-09-24T19:39:54.253Z,93.60
2018-09-24T19:42:27.929Z,93.70
2018-09-24T19:45:01.746Z,93.70
2018-09-24T19:47:35.261Z,93.70
2018-09-24T19:50:08.944Z,93.50
2018-09-24T19:52:42.519Z,93.60
2018-09-24T19:55:16.208Z,93.60
2018-09-24T19:57:49.938Z,93.80
2018-09-24T20:00:23.428Z,93.90
2018-09-24T20:02:57.038Z,93.90
2018-09-24T20:05:30.589Z,93.90
2018-09-24T20:08:04.242Z,93.90
2018-09-24T20:10:37.960Z,94.10
2018-09-24T20:13:11.466Z,94.00
2018-09-24T20:15:44.979Z,93.90
2018-09-24T20:18:18.527Z,94.00
2018-09-24T20:20:52.201Z,93.90
2018-09-24T20:23:25.843Z,94.00
2018-09-24T20:25:59.486Z,93.90
2018-09-24T20:28:32.954Z,94.20
2018-09-24T20:31:06.655Z,93.90
2018-09-24T20:33:40.131Z,94.10
2018-09-24T20:36:13.744Z,93.90
2018-09-24T20:38:47.274Z,93.80
2018-09-24T20:41:20.817Z,93.90
2018-09-24T20:43:54.338Z,94.10
2018-09-24T20:46:28.042Z,93.90
2018-09-24T20:49:01.410Z,94.30
2018-09-24T20:51:35.162Z,94.10
2018-09-24T20:54:08.597Z,94.40
2018-09-24T20:56:42.086Z,94.40
2018-09-24T20:59:15.574Z,94.40
2018-09-24T21:01:49.060Z,94.90
2018-09-24T21:04:22.566Z,94.70
2018-09-24T21:06:56.113Z,94.70
2018-09-24T21:09:29.615Z,94.90
2018-09-24T21:12:03.142Z,94.70
2018-09-24T21:14:36.919Z,94.80
2018-09-24T21:17:10.421Z,94.80
2018-09-24T21:19:44.108Z,95.00
2018-09-24T21:22:17.648Z,95.00
2018-09-24T21:24:51.396Z,94.80
2018-09-24T21:27:24.940Z,94.90
2018-09-24T21:29:58.537Z,95.00
2018-09-24T21:32:32.217Z,95.00
2018-09-24T21:35:05.920Z,95.20
2018-09-24T21:37:39.498Z,95.20
2018-09-24T21:40:13.909Z,95.50
2018-09-24T21:42:47.441Z,95.60
2018-09-24T21:45:20.949Z,95.50
2018-09-24T21:47:54.639Z,95.60
2018-09-24T21:50:28.099Z,95.80
2018-09-24T21:53:01.738Z,95.50
2018-09-24T21:55:35.506Z,95.40
2018-09-24T21:58:09.132Z,95.40
2018-09-24T22:00:42.752Z,95.60
2018-09-24T22:03:16.279Z,96.00
2018-09-24T22:05:49.990Z,95.80
2018-09-24T22:08:23.686Z,95.90
2018-09-24T22:10:57.344Z,96.10
2018-09-24T22:13:30.955Z,96.00
2018-09-24T22:16:04.445Z,96.00
2018-09-24T22:18:37.977Z,95.90
2018-09-24T22:21:11.690Z,96.00
2018-09-24T22:23:45.138Z,96.10
2018-09-24T22:26:18.741Z,96.10
2018-09-24T22:28:52.377Z,96.10
2018-09-24T22:31:26.953Z,96.00
2018-09-24T22:34:00.429Z,96.10
2018-09-24T22:36:34.197Z,96.10
2018-09-24T22:39:07.724Z,96.20
2018-09-24T22:41:41.433Z,96.10
2018-09-24T22:44:17.005Z,96.30
2018-09-24T22:46:50.573Z,96.10
2018-09-24T22:49:24.177Z,96.20
2018-09-24T22:51:57.881Z,95.90
2018-09-24T22:54:31.540Z,95.90
2018-09-24T22:57:05.218Z,95.90
2018-09-24T22:59:38.842Z,96.00
2018-09-24T23:02:12.495Z,95.80
2018-09-24T23:04:46.032Z,95.90
2018-09-24T23:07:19.620Z,95.70
2018-09-24T23:09:53.253Z,95.80
2018-09-24T23:12:27.052Z,95.80
2018-09-24T23:15:00.694Z,96.00
2018-09-24T23:17:34.424Z,95.60
2018-09-24T23:20:07.986Z,96.10
2018-09-24T23:22:41.686Z,96.00
2018-09-24T23:25:15.265Z,95.70
2018-09-24T23:27:48.936Z,95.80
2018-09-24T23:30:22.393Z,96.00
2018-09-24T23:32:56.006Z,96.20
2018-09-24T23:35:29.456Z,95.90
2018-09-24T23:45:14.863Z,95.90
2018-09-24T23:47:48.457Z,95.50
2018-09-24T23:50:22.180Z,95.40
2018-09-24T23:52:55.887Z,95.60
2018-09-24T23:55:29.577Z,95.90
2018-09-24T23:58:03.133Z,96.00
